sensor_id;sensor_type;location;lat;lon;timestamp;pressure;altitude;pressure_sealevel;temperature;humidity
69766;BME280;57039;48.014;21.384;2022-08-25T00:09:33;100661.81;;;20.97;100.00
69766;BME280;57039;48.014;21.384;2022-08-25T00:19:36;100657.63;;;20.95;100.00
69766;BME280;57039;48.014;21.384;2022-08-25T00:29:39;100655.84;;;21.13;100.00
69766;BME280;57039;48.014;21.384;2022-08-25T00:39:43;100652.47;;;21.11;100.00
69766;BME280;57039;48.014;21.384;2022-08-25T00:49:50;100651.19;;;20.88;100.00
69766;BME280;57039;48.014;21.384;2022-08-25T00:59:56;100649.69;;;20.85;100.00
69766;BME280;57039;48.014;21.384;2022-08-25T01:09:59;100652.47;;;20.46;100.00
69766;BME280;57039;48.014;21.384;2022-08-25T01:20:03;100645.44;;;20.45;100.00
69766;BME280;57039;48.014;21.384;2022-08-25T01:30:06;100650.81;;;20.36;100.00
69766;BME280;57039;48.014;21.384;2022-08-25T01:40:10;100652.47;;;20.37;100.00
69766;BME280;57039;48.014;21.384;2022-08-25T01:50:13;100658.34;;;20.50;100.00
69766;BME280;57039;48.014;21.384;2022-08-25T02:00:18;100649.41;;;20.22;100.00
69766;BME280;57039;48.014;21.384;2022-08-25T02:10:21;100655.41;;;20.34;100.00
69766;BME280;57039;48.014;21.384;2022-08-25T02:20:25;100647.72;;;20.40;100.00
69766;BME280;57039;48.014;21.384;2022-08-25T02:30:28;100641.34;;;19.84;100.00
69766;BME280;57039;48.014;21.384;2022-08-25T02:40:31;100638.78;;;20.12;100.00
69766;BME280;57039;48.014;21.384;2022-08-25T02:50:34;100643.13;;;20.13;100.00
69766;BME280;57039;48.014;21.384;2022-08-25T03:00:37;100631.66;;;20.03;100.00
69766;BME280;57039;48.014;21.384;2022-08-25T03:10:41;100639.38;;;19.77;100.00
69766;BME280;57039;48.014;21.384;2022-08-25T03:20:44;100631.97;;;19.71;100.00
69766;BME280;57039;48.014;21.384;2022-08-25T03:30:47;100634.47;;;19.92;100.00
69766;BME280;57039;48.014;21.384;2022-08-25T03:40:57;100649.75;;;19.70;100.00
69766;BME280;57039;48.014;21.384;2022-08-25T03:51:01;100654.91;;;19.62;100.00
69766;BME280;57039;48.014;21.384;2022-08-25T04:01:04;100651.59;;;19.70;100.00
69766;BME280;57039;48.014;21.384;2022-08-25T04:11:14;100652.84;;;19.75;100.00
69766;BME280;57039;48.014;21.384;2022-08-25T04:21:18;100652.00;;;19.94;100.00
69766;BME280;57039;48.014;21.384;2022-08-25T04:31:22;100634.44;;;20.11;100.00
69766;BME280;57039;48.014;21.384;2022-08-25T04:41:25;100637.06;;;20.30;100.00
69766;BME280;57039;48.014;21.384;2022-08-25T04:51:37;100635.91;;;20.43;100.00
69766;BME280;57039;48.014;21.384;2022-08-25T05:01:42;100630.91;;;20.77;100.00
69766;BME280;57039;48.014;21.384;2022-08-25T05:11:52;100652.50;;;21.29;100.00
69766;BME280;57039;48.014;21.384;2022-08-25T05:21:55;100646.28;;;21.92;100.00
69766;BME280;57039;48.014;21.384;2022-08-25T05:31:59;100635.91;;;22.33;95.35
69766;BME280;57039;48.014;21.384;2022-08-25T05:42:02;100647.53;;;22.84;92.19
69766;BME280;57039;48.014;21.384;2022-08-25T05:52:05;100644.22;;;23.24;88.37
69766;BME280;57039;48.014;21.384;2022-08-25T06:02:08;100646.44;;;23.62;85.54
69766;BME280;57039;48.014;21.384;2022-08-25T06:12:32;100642.09;;;24.18;84.36
69766;BME280;57039;48.014;21.384;2022-08-25T06:22:37;100641.88;;;25.00;81.41
69766;BME280;57039;48.014;21.384;2022-08-25T06:32:42;100645.00;;;25.20;77.57
69766;BME280;57039;48.014;21.384;2022-08-25T06:42:47;100650.63;;;25.79;74.28
69766;BME280;57039;48.014;21.384;2022-08-25T06:52:51;100655.81;;;26.56;72.73
69766;BME280;57039;48.014;21.384;2022-08-25T07:02:55;100652.66;;;26.82;68.11
69766;BME280;57039;48.014;21.384;2022-08-25T07:12:58;100650.03;;;26.89;67.05
69766;BME280;57039;48.014;21.384;2022-08-25T07:23:02;100652.12;;;27.60;66.84
69766;BME280;57039;48.014;21.384;2022-08-25T07:33:05;100644.84;;;28.31;62.42
69766;BME280;57039;48.014;21.384;2022-08-25T07:43:28;100650.13;;;28.74;58.26
69766;BME280;57039;48.014;21.384;2022-08-25T07:53:31;100657.25;;;29.37;55.94
69766;BME280;57039;48.014;21.384;2022-08-25T08:03:34;100654.22;;;29.73;53.62
69766;BME280;57039;48.014;21.384;2022-08-25T08:13:53;100647.16;;;29.92;52.37
69766;BME280;57039;48.014;21.384;2022-08-25T08:23:58;100642.62;;;30.77;51.02
69766;BME280;57039;48.014;21.384;2022-08-25T08:34:02;100645.38;;;30.70;52.51
69766;BME280;57039;48.014;21.384;2022-08-25T08:54:17;100634.84;;;31.71;48.84
69766;BME280;57039;48.014;21.384;2022-08-25T09:04:29;100636.47;;;32.10;46.59
69766;BME280;57039;48.014;21.384;2022-08-25T09:35:24;100600.97;;;32.67;41.86
69766;BME280;57039;48.014;21.384;2022-08-25T09:55:45;100576.37;;;33.76;39.70
69766;BME280;57039;48.014;21.384;2022-08-25T10:06:07;100570.56;;;34.19;37.24
69766;BME280;57039;48.014;21.384;2022-08-25T10:16:27;100557.53;;;34.85;36.80
69766;BME280;57039;48.014;21.384;2022-08-25T11:08:39;100500.00;;;35.15;35.15
69766;BME280;57039;48.014;21.384;2022-08-25T11:19:02;100490.69;;;35.50;33.28
69766;BME280;57039;48.014;21.384;2022-08-25T11:29:15;100482.44;;;35.11;34.23
69766;BME280;57039;48.014;21.384;2022-08-25T11:39:52;100460.13;;;35.48;35.99
69766;BME280;57039;48.014;21.384;2022-08-25T11:50:05;100434.97;;;35.29;34.05
69766;BME280;57039;48.014;21.384;2022-08-25T12:10:21;100430.88;;;35.10;34.38
69766;BME280;57039;48.014;21.384;2022-08-25T12:31:02;100421.00;;;34.92;32.23
69766;BME280;57039;48.014;21.384;2022-08-25T12:41:21;100405.69;;;35.80;30.60
69766;BME280;57039;48.014;21.384;2022-08-25T12:51:39;100403.06;;;35.30;32.44
69766;BME280;57039;48.014;21.384;2022-08-25T13:02:10;100406.44;;;34.69;32.78
69766;BME280;57039;48.014;21.384;2022-08-25T13:12:23;100394.38;;;34.82;32.24
69766;BME280;57039;48.014;21.384;2022-08-25T13:22:30;100385.00;;;34.16;33.11
69766;BME280;57039;48.014;21.384;2022-08-25T13:32:34;100381.62;;;33.97;33.37
69766;BME280;57039;48.014;21.384;2022-08-25T13:42:40;100378.12;;;33.84;32.99
69766;BME280;57039;48.014;21.384;2022-08-25T13:52:48;100364.84;;;33.88;33.47
69766;BME280;57039;48.014;21.384;2022-08-25T14:02:53;100373.53;;;33.73;34.06
69766;BME280;57039;48.014;21.384;2022-08-25T14:13:28;100360.78;;;33.62;33.83
69766;BME280;57039;48.014;21.384;2022-08-25T14:23:34;100348.63;;;32.94;34.34
69766;BME280;57039;48.014;21.384;2022-08-25T14:33:46;100328.41;;;33.25;34.85
69766;BME280;57039;48.014;21.384;2022-08-25T14:43:54;100330.78;;;33.10;35.45
69766;BME280;57039;48.014;21.384;2022-08-25T14:54:00;100319.66;;;32.76;33.79
69766;BME280;57039;48.014;21.384;2022-08-25T15:04:14;100319.06;;;32.74;31.81
69766;BME280;57039;48.014;21.384;2022-08-25T15:14:21;100311.66;;;32.39;31.79
69766;BME280;57039;48.014;21.384;2022-08-25T15:24:35;100298.91;;;32.40;34.90
69766;BME280;57039;48.014;21.384;2022-08-25T15:34:41;100293.72;;;31.96;34.95
69766;BME280;57039;48.014;21.384;2022-08-25T15:44:44;100294.19;;;31.75;36.59
69766;BME280;57039;48.014;21.384;2022-08-25T15:54:55;100289.00;;;31.55;37.95
69766;BME280;57039;48.014;21.384;2022-08-25T16:04:59;100283.81;;;31.35;39.38
69766;BME280;57039;48.014;21.384;2022-08-25T16:15:03;100288.25;;;31.11;38.78
69766;BME280;57039;48.014;21.384;2022-08-25T16:25:07;100291.63;;;30.88;40.08
69766;BME280;57039;48.014;21.384;2022-08-25T16:35:12;100283.53;;;30.56;41.06
69766;BME280;57039;48.014;21.384;2022-08-25T16:45:15;100288.13;;;30.31;42.81
69766;BME280;57039;48.014;21.384;2022-08-25T16:55:20;100288.03;;;30.06;44.62
69766;BME280;57039;48.014;21.384;2022-08-25T17:05:26;100280.94;;;29.73;46.85
69766;BME280;57039;48.014;21.384;2022-08-25T17:15:29;100279.44;;;29.32;49.44
69766;BME280;57039;48.014;21.384;2022-08-25T17:25:36;100290.75;;;28.69;53.97
69766;BME280;57039;48.014;21.384;2022-08-25T17:35:45;100288.16;;;28.14;57.48
69766;BME280;57039;48.014;21.384;2022-08-25T17:45:52;100291.75;;;27.67;60.91
69766;BME280;57039;48.014;21.384;2022-08-25T17:55:59;100301.50;;;27.20;64.54
69766;BME280;57039;48.014;21.384;2022-08-25T18:06:02;100303.25;;;26.78;67.61
69766;BME280;57039;48.014;21.384;2022-08-25T18:16:08;100309.28;;;26.58;69.13
69766;BME280;57039;48.014;21.384;2022-08-25T18:26:11;100303.25;;;26.13;70.89
69766;BME280;57039;48.014;21.384;2022-08-25T18:36:15;100315.88;;;26.13;71.70
69766;BME280;57039;48.014;21.384;2022-08-25T18:46:19;100314.72;;;25.71;73.46
69766;BME280;57039;48.014;21.384;2022-08-25T18:56:25;100313.56;;;25.59;74.54
69766;BME280;57039;48.014;21.384;2022-08-25T19:06:28;100321.16;;;25.25;76.68
69766;BME280;57039;48.014;21.384;2022-08-25T19:16:38;100305.37;;;25.08;77.95
69766;BME280;57039;48.014;21.384;2022-08-25T19:26:43;100314.91;;;24.95;78.40
69766;BME280;57039;48.014;21.384;2022-08-25T19:36:46;100314.69;;;24.82;78.42
69766;BME280;57039;48.014;21.384;2022-08-25T19:46:50;100303.38;;;24.72;78.14
69766;BME280;57039;48.014;21.384;2022-08-25T19:56:53;100313.88;;;24.35;79.57
69766;BME280;57039;48.014;21.384;2022-08-25T20:06:57;100311.34;;;24.42;74.26
69766;BME280;57039;48.014;21.384;2022-08-25T20:17:01;100318.59;;;24.33;72.35
69766;BME280;57039;48.014;21.384;2022-08-25T20:27:04;100318.09;;;24.07;73.10
69766;BME280;57039;48.014;21.384;2022-08-25T20:37:08;100307.50;;;24.36;67.78
69766;BME280;57039;48.014;21.384;2022-08-25T20:47:11;100314.47;;;24.69;61.73
69766;BME280;57039;48.014;21.384;2022-08-25T20:57:15;100319.41;;;24.80;60.02
69766;BME280;57039;48.014;21.384;2022-08-25T21:07:19;100329.16;;;24.96;58.21
69766;BME280;57039;48.014;21.384;2022-08-25T21:17:25;100321.66;;;25.06;56.58
69766;BME280;57039;48.014;21.384;2022-08-25T21:27:28;100330.44;;;25.00;56.90
69766;BME280;57039;48.014;21.384;2022-08-25T21:37:32;100334.66;;;24.79;57.30
69766;BME280;57039;48.014;21.384;2022-08-25T21:47:35;100336.84;;;24.61;58.28
69766;BME280;57039;48.014;21.384;2022-08-25T21:57:43;100328.09;;;24.44;58.78
69766;BME280;57039;48.014;21.384;2022-08-25T22:07:46;100332.81;;;24.42;58.02
69766;BME280;57039;48.014;21.384;2022-08-25T22:17:49;100326.28;;;24.36;57.36
69766;BME280;57039;48.014;21.384;2022-08-25T22:27:52;100323.94;;;24.33;56.35
69766;BME280;57039;48.014;21.384;2022-08-25T22:37:59;100319.78;;;24.31;57.98
69766;BME280;57039;48.014;21.384;2022-08-25T22:48:03;100321.03;;;24.20;57.15
69766;BME280;57039;48.014;21.384;2022-08-25T22:58:08;100307.00;;;24.10;57.21
69766;BME280;57039;48.014;21.384;2022-08-25T23:08:11;100307.38;;;24.07;56.39
69766;BME280;57039;48.014;21.384;2022-08-25T23:18:16;100302.25;;;23.97;56.48
69766;BME280;57039;48.014;21.384;2022-08-25T23:28:21;100304.28;;;23.87;56.44
69766;BME280;57039;48.014;21.384;2022-08-25T23:38:24;100299.16;;;23.77;56.31
69766;BME280;57039;48.014;21.384;2022-08-25T23:48:30;100296.81;;;23.74;56.28
69766;BME280;57039;48.014;21.384;2022-08-25T23:58:33;100283.28;;;23.67;55.60
